Datto, Arkansas
Current Conditions -  °F | °C
As of 9:55 PM on Saturday 20 Dec 2014 (Local Time) from K4M9 Reporting Station
Haze Haze  
Wind Chill: 41°   Ceiling: 2400
Heat Index: 41°   Visibility: 1.5mi
Dew Point: 36°   Wind: 3mph
Humidity: 81%   Direction: 120°ESE
Pressure: 30.28"   Gusts: NA
Location:  36.39°N, 90.73°W
Report Text: K4M9 210355Z AUTO 12003KT 1 1/2SM HZ OVC024 05/02 A3028 RMK AO2
Loading
Personal Weather Stations






























Interactive Weather Map New forecast layout! Learn more

10-Day Weather Forecast

Advertisements
Track Severe Weather on mobile